createdAt,value
2019-05-02T00:04:55.856Z,11.97
2019-05-02T00:15:02.035Z,11.81
2019-05-02T00:25:00.324Z,11.63
2019-05-02T00:35:01.886Z,11.57
2019-05-02T00:45:05.061Z,11.42
2019-05-02T00:55:06.532Z,11.39
2019-05-02T01:05:08.086Z,11.30
2019-05-02T01:15:11.333Z,11.11
2019-05-02T01:25:15.756Z,11.04
2019-05-02T01:35:27.041Z,10.94
2019-05-02T01:45:26.708Z,10.82
2019-05-02T01:55:28.287Z,10.73
2019-05-02T02:05:32.213Z,10.51
2019-05-02T02:15:32.741Z,10.34
2019-05-02T02:25:38.745Z,10.11
2019-05-02T02:35:49.507Z,9.96
2019-05-02T02:45:59.761Z,9.85
2019-05-02T02:56:04.149Z,9.74
2019-05-02T03:06:08.016Z,9.65
2019-05-02T03:16:10.631Z,9.56
2019-05-02T03:26:14.751Z,9.53
2019-05-02T03:36:28.011Z,9.59
2019-05-02T03:46:20.545Z,9.57
2019-05-02T03:56:21.540Z,9.44
2019-05-02T04:06:23.957Z,9.50
2019-05-02T04:16:26.639Z,9.59
2019-05-02T04:26:27.899Z,9.72
2019-05-02T04:36:29.177Z,10.00
2019-05-02T04:46:31.286Z,10.38
2019-05-02T04:56:32.615Z,10.68
2019-05-02T05:06:33.678Z,11.04
2019-05-02T05:16:34.853Z,11.33
2019-05-02T05:26:42.748Z,11.72
2019-05-02T05:36:41.076Z,12.19
2019-05-02T05:46:42.806Z,12.62
2019-05-02T05:56:51.911Z,13.37
2019-05-02T06:06:53.955Z,15.07
2019-05-02T06:16:56.249Z,18.16
2019-05-02T06:26:57.521Z,18.88
2019-05-02T06:36:59.422Z,23.84
2019-05-02T06:47:04.212Z,28.68
2019-05-02T06:57:04.089Z,31.50
2019-05-02T07:07:05.563Z,32.14
2019-05-02T07:17:17.901Z,32.39
2019-05-02T07:27:19.655Z,36.53
2019-05-02T07:37:21.037Z,42.48
2019-05-02T07:47:22.221Z,46.84
2019-05-02T07:57:25.335Z,48.26
2019-05-02T08:07:34.048Z,49.84
2019-05-02T08:17:29.865Z,50.07
2019-05-02T08:27:34.733Z,51.16
2019-05-02T08:37:41.048Z,52.35
2019-05-02T08:47:39.106Z,53.75
2019-05-02T08:57:40.382Z,53.68
2019-05-02T09:07:43.118Z,55.14
2019-05-02T09:17:51.666Z,53.91
2019-05-02T09:27:47.635Z,52.84
2019-05-02T09:37:48.793Z,53.39
2019-05-02T09:47:58.168Z,51.74
2019-05-02T09:57:53.379Z,52.02
2019-05-02T10:07:57.516Z,52.20
2019-05-02T10:18:10.287Z,52.30
2019-05-02T10:28:02.278Z,52.24
2019-05-02T10:38:04.835Z,49.17
2019-05-02T10:48:05.996Z,45.54
2019-05-02T10:58:07.515Z,45.06
2019-05-02T11:08:08.801Z,40.74
2019-05-02T11:18:10.068Z,33.86
2019-05-02T11:28:12.459Z,31.02
2019-05-02T11:38:14.399Z,30.91
2019-05-02T11:48:15.945Z,29.83
2019-05-02T11:58:17.103Z,28.44
2019-05-02T12:08:18.480Z,26.58
2019-05-02T12:18:22.511Z,25.85
2019-05-02T12:28:23.342Z,27.66
2019-05-02T12:38:24.616Z,29.01
2019-05-02T12:48:25.969Z,29.52
2019-05-02T12:58:27.200Z,29.78
2019-05-02T13:08:28.599Z,29.10
2019-05-02T13:18:36.263Z,28.76
2019-05-02T13:28:33.321Z,28.78
2019-05-02T13:38:35.141Z,28.44
2019-05-02T13:48:36.494Z,27.57
2019-05-02T13:58:37.916Z,27.07
2019-05-02T14:08:43.002Z,27.01
2019-05-02T14:18:44.373Z,29.00
2019-05-02T14:28:45.651Z,29.45
2019-05-02T14:38:47.086Z,28.10
2019-05-02T14:48:49.319Z,29.56
2019-05-02T14:58:52.646Z,28.87
2019-05-02T15:08:53.845Z,28.76
2019-05-02T15:18:57.039Z,27.42
2019-05-02T15:28:58.073Z,26.71
2019-05-02T15:49:05.649Z,26.31
2019-05-02T15:59:07.000Z,26.10
2019-05-02T16:09:08.575Z,25.96
2019-05-02T16:19:15.001Z,25.81
2019-05-02T16:29:23.722Z,25.76
2019-05-02T16:39:18.434Z,24.77
2019-05-02T16:49:19.820Z,23.86
2019-05-02T16:59:23.166Z,24.41
2019-05-02T17:09:44.433Z,24.68
2019-05-02T17:19:45.629Z,24.14
2019-05-02T17:29:46.710Z,23.39
2019-05-02T17:39:47.859Z,22.69
2019-05-02T17:49:49.944Z,21.94
2019-05-02T17:59:52.009Z,21.43
2019-05-02T18:09:53.313Z,20.98
2019-05-02T18:19:56.649Z,20.73
2019-05-02T18:29:57.686Z,19.58
2019-05-02T18:39:58.999Z,17.40
2019-05-02T18:50:05.652Z,17.27
2019-05-02T19:00:05.838Z,16.92
2019-05-02T19:10:07.920Z,16.56
2019-05-02T19:20:27.970Z,16.67
2019-05-02T19:30:33.995Z,16.53
2019-05-02T19:40:35.173Z,16.35
2019-05-02T19:50:43.070Z,16.26
2019-05-02T20:00:42.245Z,16.28
2019-05-02T20:10:43.781Z,16.20
2019-05-02T20:20:49.399Z,16.22
2019-05-02T20:30:52.535Z,16.21
2019-05-02T20:40:53.913Z,16.21
2019-05-02T20:50:55.180Z,15.81
2019-05-02T21:01:05.535Z,15.92
2019-05-02T21:11:01.772Z,15.91
2019-05-02T21:21:04.476Z,15.86
2019-05-02T21:31:06.844Z,15.48
2019-05-02T21:41:09.616Z,15.51
2019-05-02T21:51:14.171Z,15.60
2019-05-02T22:01:15.993Z,15.61
2019-05-02T22:11:17.392Z,15.45
2019-05-02T22:21:18.684Z,15.31
2019-05-02T22:31:19.976Z,15.15
2019-05-02T22:41:22.146Z,14.93
2019-05-02T22:51:23.405Z,14.98
2019-05-02T23:01:24.658Z,14.96
2019-05-02T23:11:25.942Z,14.85
2019-05-02T23:21:27.312Z,14.86
2019-05-02T23:31:28.685Z,14.72
2019-05-02T23:41:32.812Z,14.95
2019-05-02T23:51:34.210Z,14.93
